Portada
METAR-TAF:

METAR-TAF

Aeroports :

Castres, França

latitud: 43-33-25N, longitud: 2-17-21E, altitud: 239 m

Observació

L'informe es va fer fa 34 minuts, a les 19:30 UTC
Vent 3 kt del Oest/Sud-Oest
Temperatura 10°C
Humitat 71%
Pressió 1019 hPa
Visibilitat 10 km o més
sense núvols per sota de 1500 mi sense presència de cumulonimbus.

METAR: LFCK 051930Z AUTO 25003KT CAVOK 10/05 Q1019 NOSIG

Hora: 21:04 (20:04 UTC)

Pronòstic

L'informe es va fer fa 3 hores i 4 minuts, a les 17:00 UTC
Pronòstic vàlid del 05 a les 18 UTC al 06 a les 03 UTC
Vent 8 kt del Nord-Oest
Visibilitat 10 km o més
sense núvols per sota de 1500 mi sense presència de cumulonimbus.
Evolucionant progressivament
l' 05 a les 20 UTC al 05 a les 22 UTC
Vent 3 kt amb direcció variable

TAF: LFCK 051700Z 0518/0603 31008KT CAVOK BECMG 0520/0522 VRB03KT

Observacions i pronòstics meteorològics de més de 4000 aeroports (METAR i TAF).

Les estacions disponibles són els punts grocs i vermells al mapa.

Posi el ratolí al punt desitjat per veure el nom de l'estació.

Feu clic per veure les observacions i els pronòstics meteorològics.

Per canviar el mapa: feu clic els botons verds amb una creu de color negre per apropar; al botó verd amb un guió per allunyar la imatge; o en les fletxes verdes per a mapes adjacents.


METAR-TAF: